createdAt,value
2017-10-11T00:00:32.676Z,15.20
2017-10-11T00:03:00.731Z,15.20
2017-10-11T00:05:28.823Z,15.20
2017-10-11T00:07:56.899Z,15.20
2017-10-11T00:10:24.988Z,15.20
2017-10-11T00:12:53.060Z,15.10
2017-10-11T00:15:21.895Z,15.10
2017-10-11T00:17:49.979Z,15.10
2017-10-11T00:20:18.035Z,15.20
2017-10-11T00:22:46.150Z,15.20
2017-10-11T00:25:14.190Z,15.20
2017-10-11T00:27:42.264Z,15.30
2017-10-11T00:30:10.354Z,15.20
2017-10-11T00:32:38.431Z,15.10
2017-10-11T00:35:06.513Z,15.10
2017-10-11T00:37:34.560Z,15.10
2017-10-11T00:40:02.646Z,15.10
2017-10-11T00:42:30.710Z,15.20
2017-10-11T00:44:58.792Z,15.20
2017-10-11T00:47:26.863Z,15.30
2017-10-11T00:49:54.981Z,15.30
2017-10-11T00:52:23.047Z,15.30
2017-10-11T00:54:51.119Z,15.30
2017-10-11T00:57:19.216Z,15.40
2017-10-11T00:59:48.063Z,15.40
2017-10-11T01:02:16.127Z,15.40
2017-10-11T01:04:44.195Z,15.40
2017-10-11T01:07:12.308Z,15.40
2017-10-11T01:09:40.367Z,15.30
2017-10-11T01:12:08.452Z,15.30
2017-10-11T01:14:37.274Z,15.20
2017-10-11T01:17:05.372Z,15.10
2017-10-11T01:19:33.438Z,15.10
2017-10-11T01:22:01.523Z,15.20
2017-10-11T01:24:29.610Z,15.30
2017-10-11T01:26:57.691Z,15.30
2017-10-11T01:29:25.751Z,15.30
2017-10-11T01:31:53.822Z,15.20
2017-10-11T01:34:21.898Z,15.10
2017-10-11T01:36:49.971Z,15.20
2017-10-11T01:39:18.043Z,15.20
2017-10-11T01:41:46.107Z,15.20
2017-10-11T01:44:14.164Z,15.30
2017-10-11T01:46:42.228Z,15.30
2017-10-11T01:49:10.315Z,15.10
2017-10-11T01:51:38.383Z,15.10
2017-10-11T01:54:06.847Z,15.10
2017-10-11T01:56:34.918Z,15.10
2017-10-11T01:59:02.976Z,15.10
2017-10-11T02:01:31.846Z,15.10
2017-10-11T02:03:59.910Z,15.00
2017-10-11T02:06:27.980Z,15.10
2017-10-11T02:08:56.039Z,15.10
2017-10-11T02:11:24.260Z,15.10
2017-10-11T02:13:53.087Z,15.10
2017-10-11T02:16:21.143Z,15.10
2017-10-11T02:18:49.211Z,15.20
2017-10-11T02:21:17.274Z,15.10
2017-10-11T02:23:45.367Z,15.10
2017-10-11T02:26:13.426Z,15.20
2017-10-11T02:28:41.528Z,15.20
2017-10-11T02:31:09.572Z,15.20
2017-10-11T02:33:37.653Z,15.20
2017-10-11T02:36:05.714Z,15.20
2017-10-11T02:38:33.786Z,15.40
2017-10-11T02:41:01.848Z,15.30
2017-10-11T02:43:29.912Z,15.20
2017-10-11T02:45:57.975Z,15.20
2017-10-11T02:48:26.051Z,15.10
2017-10-11T02:50:54.134Z,15.10
2017-10-11T02:53:22.270Z,15.10
2017-10-11T02:55:51.108Z,15.10
2017-10-11T02:58:19.201Z,15.10
2017-10-11T03:00:48.764Z,15.00
2017-10-11T03:03:16.836Z,15.00
2017-10-11T03:05:44.914Z,15.10
2017-10-11T03:08:12.978Z,15.10
2017-10-11T03:10:41.067Z,15.20
2017-10-11T03:13:09.144Z,15.20
2017-10-11T03:15:37.198Z,15.20
2017-10-11T03:18:05.268Z,15.20
2017-10-11T03:20:33.343Z,15.20
2017-10-11T03:23:01.420Z,15.20
2017-10-11T03:25:30.552Z,15.30
2017-10-11T03:27:58.617Z,15.30
2017-10-11T03:30:26.698Z,15.30
2017-10-11T03:32:54.767Z,15.30
2017-10-11T03:35:22.838Z,15.30
2017-10-11T03:37:51.680Z,15.30
2017-10-11T03:40:19.742Z,15.20
2017-10-11T03:42:47.817Z,15.20
2017-10-11T03:45:15.867Z,15.00
2017-10-11T03:47:43.956Z,15.10
2017-10-11T03:50:12.020Z,15.20
2017-10-11T03:52:40.094Z,15.10
2017-10-11T03:55:09.186Z,15.10
2017-10-11T03:57:37.267Z,15.10
2017-10-11T04:00:05.339Z,15.10
2017-10-11T04:02:33.506Z,15.20
2017-10-11T04:05:01.533Z,15.20
2017-10-11T04:07:29.599Z,15.20
2017-10-11T04:09:57.691Z,15.20
2017-10-11T04:12:25.751Z,15.20
2017-10-11T04:14:53.790Z,15.10
2017-10-11T04:17:21.877Z,15.10
2017-10-11T04:19:49.956Z,15.00
2017-10-11T04:22:18.026Z,15.00
2017-10-11T04:24:46.098Z,15.00
2017-10-11T04:27:14.199Z,15.00
2017-10-11T04:29:44.704Z,15.00
2017-10-11T04:32:12.775Z,15.00
2017-10-11T04:34:40.866Z,15.10
2017-10-11T04:37:08.909Z,15.10
2017-10-11T04:39:36.983Z,15.00
2017-10-11T04:42:05.085Z,14.90
2017-10-11T04:44:33.943Z,15.00
2017-10-11T04:47:02.042Z,14.90
2017-10-11T04:49:30.098Z,15.00
2017-10-11T04:51:58.180Z,15.10
2017-10-11T04:54:26.223Z,15.10
2017-10-11T04:56:54.622Z,15.00
2017-10-11T04:59:22.690Z,15.10
2017-10-11T05:01:50.781Z,15.10
2017-10-11T05:04:18.845Z,15.10
2017-10-11T05:06:46.903Z,15.00
2017-10-11T05:09:15.552Z,15.00
2017-10-11T05:11:43.635Z,15.00
2017-10-11T05:14:11.719Z,15.00
2017-10-11T05:16:40.550Z,15.00
2017-10-11T05:19:08.643Z,15.00
2017-10-11T05:21:36.701Z,15.00
2017-10-11T05:24:04.782Z,15.10
2017-10-11T05:26:32.829Z,15.00
2017-10-11T05:29:00.911Z,15.10
2017-10-11T05:31:28.977Z,15.00
2017-10-11T05:33:57.048Z,15.10
2017-10-11T05:36:25.126Z,15.10
2017-10-11T05:38:53.187Z,15.20
2017-10-11T05:41:21.283Z,15.10
2017-10-11T05:43:49.357Z,15.10
2017-10-11T05:46:17.433Z,15.20
2017-10-11T05:48:45.494Z,15.20
2017-10-11T05:51:13.583Z,15.20
2017-10-11T05:53:41.655Z,15.30
2017-10-11T05:56:09.741Z,15.20
2017-10-11T05:58:38.572Z,15.20
2017-10-11T06:01:06.655Z,15.10
2017-10-11T06:03:35.512Z,15.20
2017-10-11T06:06:03.952Z,15.20
2017-10-11T06:08:32.067Z,15.10
2017-10-11T06:11:00.150Z,15.10
2017-10-11T06:13:28.223Z,14.90
2017-10-11T06:15:56.292Z,15.00
2017-10-11T06:18:24.355Z,15.00
2017-10-11T06:20:52.433Z,15.00
2017-10-11T06:23:20.489Z,15.10
2017-10-11T06:25:48.565Z,15.10
2017-10-11T06:28:16.640Z,15.10
2017-10-11T06:30:45.323Z,15.10
2017-10-11T06:33:13.387Z,15.10
2017-10-11T06:35:41.459Z,15.10
2017-10-11T06:38:09.523Z,15.20
2017-10-11T06:40:37.611Z,15.20
2017-10-11T06:43:05.675Z,15.20
2017-10-11T06:45:33.766Z,15.30
2017-10-11T06:48:01.813Z,15.30
2017-10-11T06:50:29.887Z,15.30
2017-10-11T06:52:57.955Z,15.40
2017-10-11T06:55:26.032Z,15.40
2017-10-11T06:57:54.096Z,15.40
2017-10-11T07:00:22.170Z,15.30
2017-10-11T07:02:50.235Z,15.40
2017-10-11T07:05:18.298Z,15.40
2017-10-11T07:07:46.386Z,15.40
2017-10-11T07:10:14.797Z,15.50
2017-10-11T07:12:42.848Z,15.50
2017-10-11T07:15:10.911Z,15.40
2017-10-11T07:17:39.004Z,15.40
2017-10-11T07:20:07.851Z,15.40
2017-10-11T07:22:35.922Z,15.40
2017-10-11T07:25:04.011Z,15.50
2017-10-11T07:27:32.084Z,15.60
2017-10-11T07:30:00.922Z,15.70
2017-10-11T07:32:29.014Z,15.70
2017-10-11T07:34:57.119Z,15.80
2017-10-11T07:37:25.179Z,15.80
2017-10-11T07:39:54.762Z,15.90
2017-10-11T07:42:22.831Z,15.90
2017-10-11T07:44:50.900Z,15.90
2017-10-11T07:47:18.966Z,15.90
2017-10-11T07:49:47.066Z,16.10
2017-10-11T07:52:15.131Z,16.00
2017-10-11T07:54:43.175Z,15.80
2017-10-11T07:57:11.282Z,16.00
2017-10-11T07:59:39.332Z,16.10
2017-10-11T08:02:07.430Z,16.10
2017-10-11T08:04:36.428Z,16.10
2017-10-11T08:07:04.499Z,16.00
2017-10-11T08:09:32.561Z,16.00
2017-10-11T08:12:00.650Z,16.00
2017-10-11T08:14:28.730Z,15.90
2017-10-11T08:16:56.856Z,16.00
2017-10-11T08:19:24.937Z,16.00
2017-10-11T08:21:52.992Z,16.10
2017-10-11T08:24:21.046Z,16.00
2017-10-11T08:26:49.096Z,16.00
2017-10-11T08:29:17.952Z,15.90
2017-10-11T08:31:46.009Z,15.90
2017-10-11T08:34:14.086Z,15.90
2017-10-11T08:36:42.146Z,16.00
2017-10-11T08:39:10.302Z,16.10
2017-10-11T08:41:38.365Z,16.10
2017-10-11T08:44:06.445Z,16.00
2017-10-11T08:46:34.540Z,16.00
2017-10-11T08:49:02.588Z,16.10
2017-10-11T08:51:30.676Z,16.10
2017-10-11T08:53:58.735Z,15.90
2017-10-11T08:56:26.813Z,15.80
2017-10-11T08:58:54.887Z,15.80
2017-10-11T09:01:22.971Z,15.80
2017-10-11T09:03:51.050Z,15.80
2017-10-11T09:06:19.111Z,15.80
2017-10-11T09:08:47.195Z,15.80
2017-10-11T09:11:16.033Z,15.90
2017-10-11T09:13:44.118Z,15.90
2017-10-11T09:16:12.178Z,15.90
2017-10-11T09:18:40.263Z,15.90
2017-10-11T09:21:08.327Z,16.00
2017-10-11T09:23:36.403Z,16.00
2017-10-11T09:26:04.452Z,16.00
2017-10-11T09:28:32.716Z,16.00
2017-10-11T09:31:01.572Z,16.00
2017-10-11T09:33:29.665Z,16.00
2017-10-11T09:35:58.498Z,16.00
2017-10-11T09:38:26.599Z,15.90
2017-10-11T09:40:54.664Z,16.10
2017-10-11T09:43:22.734Z,16.10
2017-10-11T09:45:50.834Z,16.10
2017-10-11T09:48:18.889Z,16.20
2017-10-11T09:50:46.959Z,16.30
2017-10-11T09:53:15.056Z,16.10
2017-10-11T09:55:43.878Z,16.20
2017-10-11T09:58:11.956Z,16.10
2017-10-11T10:00:40.084Z,16.10
2017-10-11T10:03:08.919Z,16.20
2017-10-11T10:05:36.986Z,16.10
2017-10-11T10:08:05.063Z,16.20
2017-10-11T10:10:33.145Z,16.20
2017-10-11T10:13:01.221Z,16.20
2017-10-11T10:15:29.316Z,16.20
2017-10-11T10:17:57.387Z,16.30
2017-10-11T10:20:25.446Z,16.40
2017-10-11T10:22:53.519Z,16.40
2017-10-11T10:25:21.578Z,16.60
2017-10-11T10:27:49.666Z,16.40
2017-10-11T10:30:18.362Z,16.50
2017-10-11T10:32:47.955Z,16.60
2017-10-11T10:35:16.059Z,16.60
2017-10-11T10:37:44.867Z,16.60
2017-10-11T10:40:12.949Z,16.60
2017-10-11T10:42:41.024Z,16.60
2017-10-11T10:45:09.109Z,16.60
2017-10-11T10:47:37.182Z,16.50
2017-10-11T10:50:05.268Z,16.40
2017-10-11T10:52:33.347Z,16.30
2017-10-11T10:55:01.385Z,16.20
2017-10-11T10:57:29.471Z,16.20
2017-10-11T10:59:57.556Z,16.20
2017-10-11T11:02:25.900Z,16.20
2017-10-11T11:04:54.012Z,16.20
2017-10-11T11:07:22.268Z,16.20
2017-10-11T11:09:50.343Z,16.10
2017-10-11T11:12:19.227Z,16.20
2017-10-11T11:14:47.296Z,16.20
2017-10-11T11:17:16.144Z,16.40
2017-10-11T11:19:44.241Z,16.40
2017-10-11T11:22:12.286Z,16.30
2017-10-11T11:24:40.351Z,16.30
2017-10-11T11:27:08.425Z,16.10
2017-10-11T11:29:36.504Z,16.00
2017-10-11T11:32:04.584Z,16.10
2017-10-11T11:34:32.696Z,16.10
2017-10-11T11:37:01.527Z,16.30
2017-10-11T11:39:29.618Z,16.20
2017-10-11T11:41:57.699Z,16.40
2017-10-11T11:44:26.526Z,16.30
2017-10-11T11:46:54.631Z,16.30
2017-10-11T11:49:22.743Z,16.30
2017-10-11T11:51:51.650Z,16.30
2017-10-11T11:54:19.711Z,16.20
2017-10-11T11:56:48.538Z,16.30
2017-10-11T11:59:16.771Z,16.20
2017-10-11T12:01:45.594Z,16.30
2017-10-11T12:04:13.691Z,16.30
2017-10-11T12:06:41.759Z,16.40
2017-10-11T12:09:10.611Z,16.40
2017-10-11T12:11:39.520Z,16.40
2017-10-11T12:14:09.116Z,16.60
2017-10-11T12:16:37.219Z,16.50
2017-10-11T12:19:05.303Z,16.60
2017-10-11T12:21:33.364Z,16.70
2017-10-11T12:24:01.443Z,16.70
2017-10-11T12:26:29.535Z,16.70
2017-10-11T12:28:57.647Z,16.60
2017-10-11T12:31:26.498Z,16.40
2017-10-11T12:33:54.576Z,16.40
2017-10-11T12:36:22.662Z,16.40
2017-10-11T12:38:50.730Z,16.40
2017-10-11T12:41:18.818Z,16.60
2017-10-11T12:43:46.873Z,16.60
2017-10-11T12:46:14.939Z,16.50
2017-10-11T12:48:43.031Z,16.40
2017-10-11T12:51:11.082Z,16.40
2017-10-11T12:53:39.194Z,16.40
2017-10-11T12:56:08.018Z,16.30
2017-10-11T12:58:36.085Z,16.30
2017-10-11T13:01:04.183Z,16.30
2017-10-11T13:03:32.309Z,16.30
2017-10-11T13:06:00.356Z,16.40
2017-10-11T13:08:28.444Z,16.60
2017-10-11T13:10:56.601Z,16.60
2017-10-11T13:13:24.674Z,16.50
2017-10-11T13:15:52.751Z,16.60
2017-10-11T13:18:20.834Z,16.80
2017-10-11T13:20:48.906Z,16.70
2017-10-11T13:23:16.982Z,16.60
2017-10-11T13:25:45.058Z,16.50
2017-10-11T13:28:13.927Z,16.30
2017-10-11T13:30:42.027Z,16.30
2017-10-11T13:33:10.843Z,16.10
2017-10-11T13:35:38.909Z,16.10
2017-10-11T13:38:07.008Z,16.20
2017-10-11T13:40:35.071Z,16.10
2017-10-11T13:43:03.152Z,16.20
2017-10-11T13:45:31.217Z,16.10
2017-10-11T13:47:59.295Z,16.20
2017-10-11T13:50:27.370Z,16.10
2017-10-11T13:52:55.460Z,16.30
2017-10-11T13:55:23.539Z,16.30
2017-10-11T13:57:51.602Z,16.30
2017-10-11T14:00:19.705Z,16.30
2017-10-11T14:02:48.558Z,16.20
2017-10-11T14:05:16.670Z,16.10
2017-10-11T14:07:44.736Z,16.20
2017-10-11T14:10:12.804Z,16.20
2017-10-11T14:12:40.880Z,16.20
2017-10-11T14:15:09.013Z,16.30
2017-10-11T14:17:37.856Z,16.30
2017-10-11T14:20:05.977Z,16.30
2017-10-11T14:22:34.798Z,16.40
2017-10-11T14:25:02.895Z,16.30
2017-10-11T14:27:30.975Z,16.30
2017-10-11T14:30:00.025Z,16.30
2017-10-11T14:32:28.128Z,16.20
2017-10-11T14:34:56.221Z,16.10
2017-10-11T14:37:24.438Z,16.10
2017-10-11T14:39:53.255Z,16.30
2017-10-11T14:42:21.307Z,16.30
2017-10-11T14:44:50.534Z,16.20
2017-10-11T14:47:20.860Z,16.30
2017-10-11T14:49:50.039Z,16.20
2017-10-11T14:52:19.006Z,16.10
2017-10-11T14:54:47.307Z,16.10
2017-10-11T14:57:16.960Z,16.20
2017-10-11T14:59:45.483Z,16.30
2017-10-11T15:02:13.852Z,16.30
2017-10-11T15:04:43.062Z,16.40
2017-10-11T15:07:12.122Z,16.40
2017-10-11T15:09:40.868Z,16.50
2017-10-11T15:12:09.116Z,16.50
2017-10-11T15:14:37.485Z,16.40
2017-10-11T15:17:07.719Z,16.50
2017-10-11T15:19:36.064Z,16.40
2017-10-11T15:22:04.755Z,16.40
2017-10-11T15:24:59.190Z,16.50
2017-10-11T15:27:35.804Z,16.40
2017-10-11T15:30:09.824Z,16.40
2017-10-11T15:32:45.866Z,16.40
2017-10-11T15:35:15.253Z,16.20
2017-10-11T15:37:46.939Z,16.20
2017-10-11T15:40:23.133Z,16.10
2017-10-11T15:42:51.741Z,16.10
2017-10-11T15:58:22.985Z,16.20
2017-10-11T16:00:52.789Z,16.10
2017-10-11T16:03:23.570Z,16.10
2017-10-11T16:06:03.850Z,16.20
2017-10-11T16:24:42.526Z,15.90
2017-10-11T16:27:15.212Z,15.90
2017-10-11T16:30:05.210Z,15.90
2017-10-11T16:32:33.316Z,16.00
2017-10-11T16:35:01.376Z,16.10
2017-10-11T16:37:29.476Z,16.20
2017-10-11T16:39:57.568Z,16.20
2017-10-11T16:42:25.683Z,16.20
2017-10-11T16:44:54.519Z,16.30
2017-10-11T16:47:22.737Z,16.20
2017-10-11T16:49:51.595Z,16.30
2017-10-11T16:52:19.675Z,16.20
2017-10-11T16:54:47.794Z,16.30
2017-10-11T16:57:15.934Z,16.30
2017-10-11T16:59:44.839Z,16.40
2017-10-11T17:02:13.695Z,16.20
2017-10-11T17:04:42.578Z,16.10
2017-10-11T17:07:10.660Z,16.00
2017-10-11T17:09:38.742Z,16.10
2017-10-11T17:12:06.826Z,16.10
2017-10-11T17:14:34.928Z,16.00
2017-10-11T17:17:03.027Z,16.00
2017-10-11T17:19:31.104Z,15.90
2017-10-11T17:21:59.192Z,15.90
2017-10-11T17:24:27.287Z,16.00
2017-10-11T17:26:56.136Z,16.10
2017-10-11T17:29:24.193Z,16.10
2017-10-11T17:31:52.267Z,16.00
2017-10-11T17:34:20.362Z,16.00
2017-10-11T17:36:48.447Z,16.10
2017-10-11T17:39:16.532Z,16.10
2017-10-11T17:41:44.655Z,16.00
2017-10-11T17:44:12.741Z,16.00
2017-10-11T17:46:40.845Z,16.00
2017-10-11T17:49:08.963Z,16.00
2017-10-11T17:51:37.051Z,16.00
2017-10-11T17:54:05.134Z,16.00
2017-10-11T17:56:33.220Z,16.00
2017-10-11T17:59:01.294Z,16.00
2017-10-11T18:01:30.133Z,15.90
2017-10-11T18:03:58.236Z,15.90
2017-10-11T18:06:26.294Z,15.80
2017-10-11T18:08:54.384Z,15.80
2017-10-11T18:11:22.489Z,15.90
2017-10-11T18:13:51.392Z,15.90
2017-10-11T18:16:19.520Z,15.80
2017-10-11T18:18:47.582Z,15.90
2017-10-11T18:21:15.801Z,15.90
2017-10-11T18:23:43.887Z,16.00
2017-10-11T18:26:11.998Z,16.00
2017-10-11T18:28:40.073Z,16.10
2017-10-11T18:31:08.153Z,16.00
2017-10-11T18:33:36.242Z,16.00
2017-10-11T18:36:05.072Z,16.00
2017-10-11T18:38:33.918Z,16.10
2017-10-11T18:41:02.787Z,16.10
2017-10-11T18:43:30.885Z,16.00
2017-10-11T18:45:59.234Z,16.10
2017-10-11T18:48:27.291Z,16.00
2017-10-11T18:50:55.887Z,15.90
2017-10-11T18:53:23.975Z,15.90
2017-10-11T18:55:52.182Z,15.90
2017-10-11T18:58:20.265Z,16.00
2017-10-11T19:00:48.387Z,16.10
2017-10-11T19:03:16.453Z,16.00
2017-10-11T19:05:44.943Z,16.00
2017-10-11T19:08:13.786Z,15.90
2017-10-11T19:10:41.858Z,15.90
2017-10-11T19:13:09.962Z,16.00
2017-10-11T19:15:38.073Z,16.00
2017-10-11T19:18:06.958Z,16.00
2017-10-11T19:20:35.100Z,15.90
2017-10-11T19:23:03.191Z,16.00
2017-10-11T19:25:31.334Z,16.00
2017-10-11T19:27:59.438Z,16.00
2017-10-11T19:30:27.551Z,16.00
2017-10-11T19:32:55.659Z,16.00
2017-10-11T19:35:23.750Z,16.00
2017-10-11T19:37:51.859Z,16.00
2017-10-11T19:40:20.769Z,16.00
2017-10-11T19:42:49.574Z,16.10
2017-10-11T19:45:17.692Z,16.00
2017-10-11T19:47:45.743Z,16.00
2017-10-11T19:50:13.844Z,16.10
2017-10-11T19:52:42.696Z,16.30
2017-10-11T19:55:10.796Z,16.20
2017-10-11T19:57:38.874Z,16.30
2017-10-11T20:13:29.957Z,16.00
2017-10-11T20:15:58.812Z,16.10
2017-10-11T20:18:27.000Z,16.00
2017-10-11T20:20:55.092Z,16.10
2017-10-11T20:23:24.010Z,16.20
2017-10-11T20:25:52.070Z,16.20
2017-10-11T20:28:20.242Z,16.30
2017-10-11T20:30:48.296Z,16.30
2017-10-11T20:33:17.211Z,16.20
2017-10-11T20:35:45.278Z,16.20
2017-10-11T20:38:13.448Z,16.20
2017-10-11T20:40:41.550Z,16.10
2017-10-11T20:43:09.810Z,16.10
2017-10-11T20:45:38.657Z,16.10
2017-10-11T20:48:06.838Z,16.00
2017-10-11T20:50:35.016Z,16.10
2017-10-11T20:53:03.075Z,16.20
2017-10-11T20:55:31.962Z,16.10
2017-10-11T20:58:00.024Z,16.10
2017-10-11T21:00:28.114Z,16.10
2017-10-11T21:02:56.982Z,16.20
2017-10-11T21:05:25.076Z,16.10
2017-10-11T21:07:53.144Z,16.20
2017-10-11T21:10:22.805Z,16.20
2017-10-11T21:12:51.503Z,16.20
2017-10-11T21:15:19.592Z,16.20
2017-10-11T21:17:47.660Z,16.30
2017-10-11T21:20:15.725Z,16.40
2017-10-11T21:22:43.798Z,16.40
2017-10-11T21:25:11.871Z,16.40
2017-10-11T21:27:39.947Z,16.40
2017-10-11T21:30:08.031Z,16.40
2017-10-11T21:32:36.079Z,16.40
2017-10-11T21:35:04.180Z,16.40
2017-10-11T21:37:33.605Z,16.30
2017-10-11T21:40:02.521Z,16.30
2017-10-11T21:42:30.575Z,16.20
2017-10-11T21:44:58.666Z,16.20
2017-10-11T21:47:26.750Z,16.30
2017-10-11T21:49:54.822Z,16.30
2017-10-11T21:52:22.894Z,16.30
2017-10-11T21:54:50.992Z,16.40
2017-10-11T21:57:19.827Z,16.40
2017-10-11T21:59:47.907Z,16.30
2017-10-11T22:02:16.583Z,16.30
2017-10-11T22:04:44.671Z,16.20
2017-10-11T22:07:12.759Z,16.30
2017-10-11T22:09:40.819Z,16.30
2017-10-11T22:12:09.531Z,16.30
2017-10-11T22:14:37.635Z,16.30
2017-10-11T22:17:05.733Z,16.30
2017-10-11T22:19:33.790Z,16.40
2017-10-11T22:22:01.887Z,16.40
2017-10-11T22:24:30.751Z,16.30
2017-10-11T22:26:58.846Z,16.20
2017-10-11T22:29:27.695Z,16.30
2017-10-11T22:31:55.757Z,16.30
2017-10-11T22:34:23.826Z,16.30
2017-10-11T22:36:51.904Z,16.20
2017-10-11T22:39:19.987Z,16.30
2017-10-11T22:41:48.057Z,16.30
2017-10-11T22:44:16.144Z,16.30
2017-10-11T22:46:44.214Z,16.30
2017-10-11T22:49:12.297Z,16.30
2017-10-11T22:51:41.180Z,16.20
2017-10-11T22:54:10.015Z,16.10
2017-10-11T22:56:38.100Z,16.10
2017-10-11T22:59:06.143Z,16.20
2017-10-11T23:01:34.235Z,16.20
2017-10-11T23:04:02.384Z,16.30
2017-10-11T23:06:30.408Z,16.30
2017-10-11T23:08:58.486Z,16.30
2017-10-11T23:11:26.589Z,16.30
2017-10-11T23:13:54.672Z,16.30
2017-10-11T23:16:23.489Z,16.10
2017-10-11T23:18:51.563Z,16.10
2017-10-11T23:21:19.619Z,16.10
2017-10-11T23:23:47.703Z,16.10
2017-10-11T23:26:15.763Z,16.10
2017-10-11T23:28:43.841Z,16.00
2017-10-11T23:31:11.928Z,16.00
2017-10-11T23:33:40.014Z,16.00
2017-10-11T23:36:08.051Z,16.10
2017-10-11T23:38:36.136Z,16.20
2017-10-11T23:41:04.175Z,16.10
2017-10-11T23:43:32.297Z,16.20
2017-10-11T23:46:00.358Z,16.20
2017-10-11T23:48:28.485Z,16.10
2017-10-11T23:50:56.528Z,16.00
2017-10-11T23:53:25.367Z,16.10
2017-10-11T23:55:53.447Z,16.10
2017-10-11T23:58:21.534Z,16.10
